sensor_id;sensor_type;location;lat;lon;timestamp;temperature;humidity
21580;DHT22;10951;59.656;9.666;2022-08-16T00:01:13;19.40;99.90
21580;DHT22;10951;59.656;9.666;2022-08-16T00:03:40;19.30;99.90
21580;DHT22;10951;59.656;9.666;2022-08-16T00:06:07;19.30;99.90
21580;DHT22;10951;59.656;9.666;2022-08-16T00:08:36;19.30;99.90
21580;DHT22;10951;59.656;9.666;2022-08-16T00:11:08;19.30;99.90
21580;DHT22;10951;59.656;9.666;2022-08-16T00:13:43;19.30;99.90
21580;DHT22;10951;59.656;9.666;2022-08-16T00:16:26;19.20;99.90
21580;DHT22;10951;59.656;9.666;2022-08-16T00:19:15;19.30;99.90
21580;DHT22;10951;59.656;9.666;2022-08-16T00:21:43;19.30;99.90
21580;DHT22;10951;59.656;9.666;2022-08-16T00:24:11;19.20;99.90
21580;DHT22;10951;59.656;9.666;2022-08-16T00:26:39;19.20;99.90
21580;DHT22;10951;59.656;9.666;2022-08-16T00:29:13;19.20;99.90
21580;DHT22;10951;59.656;9.666;2022-08-16T00:31:46;19.20;99.90
21580;DHT22;10951;59.656;9.666;2022-08-16T00:34:32;19.20;99.90
21580;DHT22;10951;59.656;9.666;2022-08-16T00:37:18;19.20;99.90
21580;DHT22;10951;59.656;9.666;2022-08-16T00:39:47;19.20;99.90
21580;DHT22;10951;59.656;9.666;2022-08-16T00:42:24;19.20;99.90
21580;DHT22;10951;59.656;9.666;2022-08-16T00:45:04;19.20;99.90
21580;DHT22;10951;59.656;9.666;2022-08-16T00:47:38;19.20;99.90
21580;DHT22;10951;59.656;9.666;2022-08-16T00:50:18;19.20;99.90
21580;DHT22;10951;59.656;9.666;2022-08-16T00:52:46;19.30;99.90
21580;DHT22;10951;59.656;9.666;2022-08-16T00:55:19;19.30;99.90
21580;DHT22;10951;59.656;9.666;2022-08-16T00:57:50;19.30;99.90
21580;DHT22;10951;59.656;9.666;2022-08-16T01:00:28;19.30;99.90
21580;DHT22;10951;59.656;9.666;2022-08-16T01:02:58;19.40;99.90
21580;DHT22;10951;59.656;9.666;2022-08-16T01:05:26;19.40;99.90
21580;DHT22;10951;59.656;9.666;2022-08-16T01:07:55;19.40;99.90
21580;DHT22;10951;59.656;9.666;2022-08-16T01:10:27;19.30;99.90
21580;DHT22;10951;59.656;9.666;2022-08-16T01:13:04;19.30;99.90
21580;DHT22;10951;59.656;9.666;2022-08-16T01:15:33;19.30;99.90
21580;DHT22;10951;59.656;9.666;2022-08-16T01:18:04;19.30;99.90
21580;DHT22;10951;59.656;9.666;2022-08-16T01:20:34;19.30;99.90
21580;DHT22;10951;59.656;9.666;2022-08-16T01:23:15;19.30;99.90
21580;DHT22;10951;59.656;9.666;2022-08-16T01:25:48;19.40;99.90
21580;DHT22;10951;59.656;9.666;2022-08-16T01:28:38;19.30;99.90
21580;DHT22;10951;59.656;9.666;2022-08-16T01:31:12;19.40;99.90
21580;DHT22;10951;59.656;9.666;2022-08-16T01:33:40;19.40;99.90
21580;DHT22;10951;59.656;9.666;2022-08-16T01:36:10;19.40;99.90
21580;DHT22;10951;59.656;9.666;2022-08-16T01:38:43;19.30;99.90
21580;DHT22;10951;59.656;9.666;2022-08-16T01:41:28;19.30;99.90
21580;DHT22;10951;59.656;9.666;2022-08-16T01:43:59;19.20;99.90
21580;DHT22;10951;59.656;9.666;2022-08-16T01:46:41;19.20;99.90
21580;DHT22;10951;59.656;9.666;2022-08-16T01:49:23;19.20;99.90
21580;DHT22;10951;59.656;9.666;2022-08-16T01:52:11;19.20;99.90
21580;DHT22;10951;59.656;9.666;2022-08-16T01:55:12;19.20;99.90
21580;DHT22;10951;59.656;9.666;2022-08-16T01:57:42;19.20;99.90
21580;DHT22;10951;59.656;9.666;2022-08-16T02:00:23;19.10;99.90
21580;DHT22;10951;59.656;9.666;2022-08-16T02:02:56;19.10;99.90
21580;DHT22;10951;59.656;9.666;2022-08-16T02:05:23;19.10;99.90
21580;DHT22;10951;59.656;9.666;2022-08-16T02:07:56;19.10;99.90
21580;DHT22;10951;59.656;9.666;2022-08-16T02:10:25;19.20;99.90
21580;DHT22;10951;59.656;9.666;2022-08-16T02:12:53;19.20;99.90
21580;DHT22;10951;59.656;9.666;2022-08-16T02:15:27;19.20;99.90
21580;DHT22;10951;59.656;9.666;2022-08-16T02:17:57;19.20;99.90
21580;DHT22;10951;59.656;9.666;2022-08-16T02:20:30;19.10;99.90
21580;DHT22;10951;59.656;9.666;2022-08-16T02:22:59;19.10;99.90
21580;DHT22;10951;59.656;9.666;2022-08-16T02:25:32;19.10;99.90
21580;DHT22;10951;59.656;9.666;2022-08-16T02:28:20;19.10;99.90
21580;DHT22;10951;59.656;9.666;2022-08-16T02:30:49;19.10;99.90
21580;DHT22;10951;59.656;9.666;2022-08-16T02:33:20;19.10;99.90
21580;DHT22;10951;59.656;9.666;2022-08-16T02:36:09;19.10;99.90
21580;DHT22;10951;59.656;9.666;2022-08-16T02:38:57;19.10;99.90
21580;DHT22;10951;59.656;9.666;2022-08-16T02:41:24;19.10;99.90
21580;DHT22;10951;59.656;9.666;2022-08-16T02:43:52;19.10;99.90
21580;DHT22;10951;59.656;9.666;2022-08-16T02:46:19;19.10;99.90
21580;DHT22;10951;59.656;9.666;2022-08-16T02:49:00;19.10;99.90
21580;DHT22;10951;59.656;9.666;2022-08-16T02:51:28;19.00;99.90
21580;DHT22;10951;59.656;9.666;2022-08-16T02:53:58;19.00;99.90
21580;DHT22;10951;59.656;9.666;2022-08-16T02:56:25;19.00;99.90
21580;DHT22;10951;59.656;9.666;2022-08-16T02:58:58;18.90;99.90
21580;DHT22;10951;59.656;9.666;2022-08-16T03:01:29;18.90;99.90
21580;DHT22;10951;59.656;9.666;2022-08-16T03:04:23;18.90;99.90
21580;DHT22;10951;59.656;9.666;2022-08-16T03:07:10;18.90;99.90
21580;DHT22;10951;59.656;9.666;2022-08-16T03:09:42;18.90;99.90
21580;DHT22;10951;59.656;9.666;2022-08-16T03:12:13;18.90;99.90
21580;DHT22;10951;59.656;9.666;2022-08-16T03:14:45;18.90;99.90
21580;DHT22;10951;59.656;9.666;2022-08-16T03:17:13;18.90;99.90
21580;DHT22;10951;59.656;9.666;2022-08-16T03:19:43;18.90;99.90
21580;DHT22;10951;59.656;9.666;2022-08-16T03:22:25;18.90;99.90
21580;DHT22;10951;59.656;9.666;2022-08-16T03:24:58;19.00;99.90
21580;DHT22;10951;59.656;9.666;2022-08-16T03:27:28;18.90;99.90
21580;DHT22;10951;59.656;9.666;2022-08-16T03:30:06;18.80;99.90
21580;DHT22;10951;59.656;9.666;2022-08-16T03:32:48;18.80;99.90
21580;DHT22;10951;59.656;9.666;2022-08-16T03:35:23;18.70;99.90
21580;DHT22;10951;59.656;9.666;2022-08-16T03:38:07;18.70;99.90
21580;DHT22;10951;59.656;9.666;2022-08-16T03:40:56;18.70;99.90
21580;DHT22;10951;59.656;9.666;2022-08-16T03:43:26;18.70;99.90
21580;DHT22;10951;59.656;9.666;2022-08-16T03:46:16;18.70;99.90
21580;DHT22;10951;59.656;9.666;2022-08-16T03:49:06;18.70;99.90
21580;DHT22;10951;59.656;9.666;2022-08-16T03:51:35;18.70;99.90
21580;DHT22;10951;59.656;9.666;2022-08-16T03:54:05;18.70;99.90
21580;DHT22;10951;59.656;9.666;2022-08-16T03:56:40;18.70;99.90
21580;DHT22;10951;59.656;9.666;2022-08-16T03:59:27;18.70;99.90
21580;DHT22;10951;59.656;9.666;2022-08-16T04:01:59;18.70;99.90
21580;DHT22;10951;59.656;9.666;2022-08-16T04:04:29;18.80;99.90
21580;DHT22;10951;59.656;9.666;2022-08-16T04:07:04;18.70;99.90
21580;DHT22;10951;59.656;9.666;2022-08-16T04:09:37;18.80;99.90
21580;DHT22;10951;59.656;9.666;2022-08-16T04:12:08;18.70;99.90
21580;DHT22;10951;59.656;9.666;2022-08-16T04:14:39;18.60;99.90
21580;DHT22;10951;59.656;9.666;2022-08-16T04:17:16;18.60;99.90
21580;DHT22;10951;59.656;9.666;2022-08-16T04:19:45;18.60;99.90
21580;DHT22;10951;59.656;9.666;2022-08-16T04:22:15;18.60;99.90
21580;DHT22;10951;59.656;9.666;2022-08-16T04:24:48;18.60;99.90
21580;DHT22;10951;59.656;9.666;2022-08-16T04:27:22;18.50;99.90
21580;DHT22;10951;59.656;9.666;2022-08-16T04:29:50;18.50;99.90
21580;DHT22;10951;59.656;9.666;2022-08-16T04:32:18;18.50;99.90
21580;DHT22;10951;59.656;9.666;2022-08-16T04:34:50;18.60;99.90
21580;DHT22;10951;59.656;9.666;2022-08-16T04:37:17;18.60;99.90
21580;DHT22;10951;59.656;9.666;2022-08-16T04:39:52;18.60;99.90
21580;DHT22;10951;59.656;9.666;2022-08-16T04:42:23;18.70;99.90
21580;DHT22;10951;59.656;9.666;2022-08-16T04:44:56;18.70;99.90
21580;DHT22;10951;59.656;9.666;2022-08-16T04:47:29;18.70;99.90
21580;DHT22;10951;59.656;9.666;2022-08-16T04:50:08;18.70;99.90
21580;DHT22;10951;59.656;9.666;2022-08-16T04:52:37;18.80;99.90
21580;DHT22;10951;59.656;9.666;2022-08-16T04:55:11;18.70;99.90
21580;DHT22;10951;59.656;9.666;2022-08-16T04:57:42;18.70;99.90
21580;DHT22;10951;59.656;9.666;2022-08-16T05:00:14;18.70;99.90
21580;DHT22;10951;59.656;9.666;2022-08-16T05:03:12;18.70;99.90
21580;DHT22;10951;59.656;9.666;2022-08-16T05:05:46;18.70;99.90
21580;DHT22;10951;59.656;9.666;2022-08-16T05:08:31;18.70;99.90
21580;DHT22;10951;59.656;9.666;2022-08-16T05:11:13;18.70;99.90
21580;DHT22;10951;59.656;9.666;2022-08-16T05:13:44;18.80;99.90
21580;DHT22;10951;59.656;9.666;2022-08-16T05:16:25;19.00;99.90
21580;DHT22;10951;59.656;9.666;2022-08-16T05:19:04;19.00;99.90
21580;DHT22;10951;59.656;9.666;2022-08-16T05:21:58;19.00;99.90
21580;DHT22;10951;59.656;9.666;2022-08-16T05:24:25;19.00;99.90
21580;DHT22;10951;59.656;9.666;2022-08-16T05:26:53;19.10;99.90
21580;DHT22;10951;59.656;9.666;2022-08-16T05:29:22;19.10;99.90
21580;DHT22;10951;59.656;9.666;2022-08-16T05:32:12;19.10;99.90
21580;DHT22;10951;59.656;9.666;2022-08-16T05:34:59;19.20;99.90
21580;DHT22;10951;59.656;9.666;2022-08-16T05:37:26;19.30;99.90
21580;DHT22;10951;59.656;9.666;2022-08-16T05:40:08;19.30;99.90
21580;DHT22;10951;59.656;9.666;2022-08-16T05:42:39;19.30;99.90
21580;DHT22;10951;59.656;9.666;2022-08-16T05:45:14;19.30;99.90
21580;DHT22;10951;59.656;9.666;2022-08-16T05:47:51;19.40;99.90
21580;DHT22;10951;59.656;9.666;2022-08-16T05:50:34;19.40;99.90
21580;DHT22;10951;59.656;9.666;2022-08-16T05:53:02;19.40;99.90
21580;DHT22;10951;59.656;9.666;2022-08-16T05:55:35;19.50;99.90
21580;DHT22;10951;59.656;9.666;2022-08-16T05:58:06;19.60;99.90
21580;DHT22;10951;59.656;9.666;2022-08-16T06:00:34;19.60;99.90
21580;DHT22;10951;59.656;9.666;2022-08-16T06:03:02;19.50;99.90
21580;DHT22;10951;59.656;9.666;2022-08-16T06:05:50;19.40;99.90
21580;DHT22;10951;59.656;9.666;2022-08-16T06:08:16;19.40;99.90
21580;DHT22;10951;59.656;9.666;2022-08-16T06:10:59;19.30;99.90
21580;DHT22;10951;59.656;9.666;2022-08-16T06:13:35;19.20;99.90
21580;DHT22;10951;59.656;9.666;2022-08-16T06:16:10;19.20;99.90
21580;DHT22;10951;59.656;9.666;2022-08-16T06:18:46;19.20;99.90
21580;DHT22;10951;59.656;9.666;2022-08-16T06:21:13;19.10;99.90
21580;DHT22;10951;59.656;9.666;2022-08-16T06:23:52;19.10;99.90
21580;DHT22;10951;59.656;9.666;2022-08-16T06:26:21;19.00;99.90
21580;DHT22;10951;59.656;9.666;2022-08-16T06:28:48;18.90;99.90
21580;DHT22;10951;59.656;9.666;2022-08-16T06:31:29;18.90;99.90
21580;DHT22;10951;59.656;9.666;2022-08-16T06:33:57;18.90;99.90
21580;DHT22;10951;59.656;9.666;2022-08-16T06:36:28;18.90;99.90
21580;DHT22;10951;59.656;9.666;2022-08-16T06:39:10;18.90;99.90
21580;DHT22;10951;59.656;9.666;2022-08-16T06:42:02;18.90;99.90
21580;DHT22;10951;59.656;9.666;2022-08-16T06:44:51;18.90;99.90
21580;DHT22;10951;59.656;9.666;2022-08-16T06:47:31;19.00;99.90
21580;DHT22;10951;59.656;9.666;2022-08-16T06:50:18;19.00;99.90
21580;DHT22;10951;59.656;9.666;2022-08-16T06:52:58;19.00;99.90
21580;DHT22;10951;59.656;9.666;2022-08-16T06:55:40;19.10;99.90
21580;DHT22;10951;59.656;9.666;2022-08-16T06:58:11;19.10;99.90
21580;DHT22;10951;59.656;9.666;2022-08-16T07:01:04;19.20;99.90
21580;DHT22;10951;59.656;9.666;2022-08-16T07:03:43;19.20;99.90
21580;DHT22;10951;59.656;9.666;2022-08-16T07:06:25;19.20;99.90
21580;DHT22;10951;59.656;9.666;2022-08-16T07:08:57;19.20;99.90
21580;DHT22;10951;59.656;9.666;2022-08-16T07:11:28;19.10;99.90
21580;DHT22;10951;59.656;9.666;2022-08-16T07:14:24;19.10;99.90
21580;DHT22;10951;59.656;9.666;2022-08-16T07:16:56;19.10;99.90
21580;DHT22;10951;59.656;9.666;2022-08-16T07:19:27;19.10;99.90
21580;DHT22;10951;59.656;9.666;2022-08-16T07:22:20;19.10;99.90
21580;DHT22;10951;59.656;9.666;2022-08-16T07:25:10;19.10;99.90
21580;DHT22;10951;59.656;9.666;2022-08-16T07:27:39;19.20;99.90
21580;DHT22;10951;59.656;9.666;2022-08-16T07:30:12;19.20;99.90
21580;DHT22;10951;59.656;9.666;2022-08-16T07:33:01;19.20;99.90
21580;DHT22;10951;59.656;9.666;2022-08-16T07:35:30;19.20;99.90
21580;DHT22;10951;59.656;9.666;2022-08-16T07:37:57;19.20;99.90
21580;DHT22;10951;59.656;9.666;2022-08-16T07:40:41;19.30;99.90
21580;DHT22;10951;59.656;9.666;2022-08-16T07:43:27;19.30;99.90
21580;DHT22;10951;59.656;9.666;2022-08-16T07:45:58;19.10;99.90
21580;DHT22;10951;59.656;9.666;2022-08-16T07:48:29;19.10;99.90
21580;DHT22;10951;59.656;9.666;2022-08-16T07:50:57;19.10;99.90
21580;DHT22;10951;59.656;9.666;2022-08-16T07:53:31;19.10;99.90
21580;DHT22;10951;59.656;9.666;2022-08-16T07:55:58;19.10;99.90
21580;DHT22;10951;59.656;9.666;2022-08-16T07:58:36;19.10;99.90
21580;DHT22;10951;59.656;9.666;2022-08-16T08:01:09;19.00;99.90
21580;DHT22;10951;59.656;9.666;2022-08-16T08:03:46;19.00;99.90
21580;DHT22;10951;59.656;9.666;2022-08-16T08:06:20;19.00;99.90
21580;DHT22;10951;59.656;9.666;2022-08-16T08:08:51;19.00;99.90
21580;DHT22;10951;59.656;9.666;2022-08-16T08:11:26;18.90;99.90
21580;DHT22;10951;59.656;9.666;2022-08-16T08:13:57;18.90;99.90
21580;DHT22;10951;59.656;9.666;2022-08-16T08:16:31;18.80;99.90
21580;DHT22;10951;59.656;9.666;2022-08-16T08:18:59;18.80;99.90
21580;DHT22;10951;59.656;9.666;2022-08-16T08:21:32;18.80;99.90
21580;DHT22;10951;59.656;9.666;2022-08-16T08:24:24;18.80;99.90
21580;DHT22;10951;59.656;9.666;2022-08-16T08:27:02;18.70;99.90
21580;DHT22;10951;59.656;9.666;2022-08-16T08:29:32;18.80;99.90
21580;DHT22;10951;59.656;9.666;2022-08-16T08:32:05;18.80;99.90
21580;DHT22;10951;59.656;9.666;2022-08-16T08:34:55;18.70;99.90
21580;DHT22;10951;59.656;9.666;2022-08-16T08:37:33;18.70;99.90
21580;DHT22;10951;59.656;9.666;2022-08-16T08:40:22;18.80;99.90
21580;DHT22;10951;59.656;9.666;2022-08-16T08:42:57;19.00;99.90
21580;DHT22;10951;59.656;9.666;2022-08-16T08:45:42;19.10;99.90
21580;DHT22;10951;59.656;9.666;2022-08-16T08:48:19;19.20;99.90
21580;DHT22;10951;59.656;9.666;2022-08-16T08:51:06;19.30;99.90
21580;DHT22;10951;59.656;9.666;2022-08-16T08:53:44;19.30;99.90
21580;DHT22;10951;59.656;9.666;2022-08-16T08:56:24;19.30;99.90
21580;DHT22;10951;59.656;9.666;2022-08-16T08:59:01;19.20;99.90
21580;DHT22;10951;59.656;9.666;2022-08-16T09:01:40;19.20;99.90
21580;DHT22;10951;59.656;9.666;2022-08-16T09:04:09;19.20;99.90
21580;DHT22;10951;59.656;9.666;2022-08-16T09:06:40;19.20;99.90
21580;DHT22;10951;59.656;9.666;2022-08-16T09:09:13;19.20;99.90
21580;DHT22;10951;59.656;9.666;2022-08-16T09:11:44;19.20;99.90
21580;DHT22;10951;59.656;9.666;2022-08-16T09:14:24;19.20;99.90
21580;DHT22;10951;59.656;9.666;2022-08-16T09:16:53;19.20;99.90
21580;DHT22;10951;59.656;9.666;2022-08-16T09:19:33;19.20;99.90
21580;DHT22;10951;59.656;9.666;2022-08-16T09:22:08;19.20;99.90
21580;DHT22;10951;59.656;9.666;2022-08-16T09:24:48;19.30;99.90
21580;DHT22;10951;59.656;9.666;2022-08-16T09:27:22;19.30;99.90
21580;DHT22;10951;59.656;9.666;2022-08-16T09:29:52;19.40;99.90
21580;DHT22;10951;59.656;9.666;2022-08-16T09:32:29;19.50;99.90
21580;DHT22;10951;59.656;9.666;2022-08-16T09:34:58;19.40;99.90
21580;DHT22;10951;59.656;9.666;2022-08-16T09:37:29;19.40;99.90
21580;DHT22;10951;59.656;9.666;2022-08-16T09:40:06;19.30;99.90
21580;DHT22;10951;59.656;9.666;2022-08-16T09:42:53;19.30;99.90
21580;DHT22;10951;59.656;9.666;2022-08-16T09:45:26;19.40;99.90
21580;DHT22;10951;59.656;9.666;2022-08-16T09:47:54;19.30;99.90
21580;DHT22;10951;59.656;9.666;2022-08-16T09:50:25;19.30;99.90
21580;DHT22;10951;59.656;9.666;2022-08-16T09:53:15;19.30;99.90
21580;DHT22;10951;59.656;9.666;2022-08-16T09:55:49;19.30;99.90
21580;DHT22;10951;59.656;9.666;2022-08-16T09:58:25;19.20;99.90
21580;DHT22;10951;59.656;9.666;2022-08-16T10:01:12;19.20;99.90
21580;DHT22;10951;59.656;9.666;2022-08-16T10:03:39;19.20;99.90
21580;DHT22;10951;59.656;9.666;2022-08-16T10:06:27;19.20;99.90
21580;DHT22;10951;59.656;9.666;2022-08-16T10:09:01;19.30;99.90
21580;DHT22;10951;59.656;9.666;2022-08-16T10:11:33;19.40;99.90
21580;DHT22;10951;59.656;9.666;2022-08-16T10:14:20;19.40;99.90
21580;DHT22;10951;59.656;9.666;2022-08-16T10:17:00;19.40;99.90
21580;DHT22;10951;59.656;9.666;2022-08-16T10:19:29;19.40;99.90
21580;DHT22;10951;59.656;9.666;2022-08-16T10:21:58;19.40;99.90
21580;DHT22;10951;59.656;9.666;2022-08-16T10:24:32;19.40;99.90
21580;DHT22;10951;59.656;9.666;2022-08-16T10:26:59;19.50;99.90
21580;DHT22;10951;59.656;9.666;2022-08-16T10:29:46;19.50;99.90
21580;DHT22;10951;59.656;9.666;2022-08-16T10:32:28;19.50;99.90
21580;DHT22;10951;59.656;9.666;2022-08-16T10:34:58;19.40;99.90
21580;DHT22;10951;59.656;9.666;2022-08-16T10:37:25;19.40;99.90
21580;DHT22;10951;59.656;9.666;2022-08-16T10:40:05;19.50;99.90
21580;DHT22;10951;59.656;9.666;2022-08-16T10:42:53;19.50;99.90
21580;DHT22;10951;59.656;9.666;2022-08-16T10:45:21;19.50;99.90
21580;DHT22;10951;59.656;9.666;2022-08-16T10:47:48;19.50;99.90
21580;DHT22;10951;59.656;9.666;2022-08-16T10:50:30;19.50;99.90
21580;DHT22;10951;59.656;9.666;2022-08-16T10:52:59;19.50;99.90
21580;DHT22;10951;59.656;9.666;2022-08-16T10:55:36;19.50;99.90
21580;DHT22;10951;59.656;9.666;2022-08-16T10:58:12;19.60;99.90
21580;DHT22;10951;59.656;9.666;2022-08-16T11:00:42;19.60;99.90
21580;DHT22;10951;59.656;9.666;2022-08-16T11:03:12;19.60;99.90
21580;DHT22;10951;59.656;9.666;2022-08-16T11:05:59;19.70;99.90
21580;DHT22;10951;59.656;9.666;2022-08-16T11:08:36;19.70;99.90
21580;DHT22;10951;59.656;9.666;2022-08-16T11:11:11;19.70;99.90
21580;DHT22;10951;59.656;9.666;2022-08-16T11:13:46;19.60;99.90
21580;DHT22;10951;59.656;9.666;2022-08-16T11:16:34;19.70;99.90
21580;DHT22;10951;59.656;9.666;2022-08-16T11:19:22;19.70;99.90
21580;DHT22;10951;59.656;9.666;2022-08-16T11:21:49;19.70;99.90
21580;DHT22;10951;59.656;9.666;2022-08-16T11:24:36;19.80;99.90
21580;DHT22;10951;59.656;9.666;2022-08-16T11:27:13;19.90;99.90
21580;DHT22;10951;59.656;9.666;2022-08-16T11:29:52;19.90;99.90
21580;DHT22;10951;59.656;9.666;2022-08-16T11:32:26;19.90;99.90
21580;DHT22;10951;59.656;9.666;2022-08-16T11:35:04;19.90;99.90
21580;DHT22;10951;59.656;9.666;2022-08-16T11:37:44;19.90;99.90
21580;DHT22;10951;59.656;9.666;2022-08-16T11:40:36;19.90;99.90
21580;DHT22;10951;59.656;9.666;2022-08-16T11:43:05;19.90;99.90
21580;DHT22;10951;59.656;9.666;2022-08-16T11:45:35;19.90;99.90
21580;DHT22;10951;59.656;9.666;2022-08-16T11:48:03;19.80;99.90
21580;DHT22;10951;59.656;9.666;2022-08-16T11:50:31;19.80;99.90
21580;DHT22;10951;59.656;9.666;2022-08-16T11:53:04;19.70;99.90
21580;DHT22;10951;59.656;9.666;2022-08-16T11:55:35;19.70;99.90
21580;DHT22;10951;59.656;9.666;2022-08-16T11:58:05;19.70;99.90
21580;DHT22;10951;59.656;9.666;2022-08-16T12:00:34;19.70;99.90
21580;DHT22;10951;59.656;9.666;2022-08-16T12:03:19;19.70;99.90
21580;DHT22;10951;59.656;9.666;2022-08-16T12:05:59;19.70;99.90
21580;DHT22;10951;59.656;9.666;2022-08-16T12:08:30;19.60;99.90
21580;DHT22;10951;59.656;9.666;2022-08-16T12:10:58;19.50;99.90
21580;DHT22;10951;59.656;9.666;2022-08-16T12:13:29;19.40;99.90
21580;DHT22;10951;59.656;9.666;2022-08-16T12:15:56;19.30;99.90
21580;DHT22;10951;59.656;9.666;2022-08-16T12:18:24;19.30;99.90
21580;DHT22;10951;59.656;9.666;2022-08-16T12:20:51;19.30;99.90
21580;DHT22;10951;59.656;9.666;2022-08-16T12:23:23;19.30;99.90
21580;DHT22;10951;59.656;9.666;2022-08-16T12:25:51;19.20;99.90
21580;DHT22;10951;59.656;9.666;2022-08-16T12:28:18;19.20;99.90
21580;DHT22;10951;59.656;9.666;2022-08-16T12:31:05;19.10;99.90
21580;DHT22;10951;59.656;9.666;2022-08-16T12:33:32;19.00;99.90
21580;DHT22;10951;59.656;9.666;2022-08-16T12:36:11;18.90;99.90
21580;DHT22;10951;59.656;9.666;2022-08-16T12:38:40;18.90;99.90
21580;DHT22;10951;59.656;9.666;2022-08-16T12:41:14;18.80;99.90
21580;DHT22;10951;59.656;9.666;2022-08-16T12:43:51;18.80;99.90
21580;DHT22;10951;59.656;9.666;2022-08-16T12:46:23;18.80;99.90
21580;DHT22;10951;59.656;9.666;2022-08-16T12:48:50;18.80;99.90
21580;DHT22;10951;59.656;9.666;2022-08-16T12:51:31;18.80;99.90
21580;DHT22;10951;59.656;9.666;2022-08-16T12:54:18;18.90;99.90
21580;DHT22;10951;59.656;9.666;2022-08-16T12:56:45;18.90;99.90
21580;DHT22;10951;59.656;9.666;2022-08-16T12:59:12;19.00;99.90
21580;DHT22;10951;59.656;9.666;2022-08-16T13:01:47;19.00;99.90
21580;DHT22;10951;59.656;9.666;2022-08-16T13:04:21;19.10;99.90
21580;DHT22;10951;59.656;9.666;2022-08-16T13:06:50;19.20;99.90
21580;DHT22;10951;59.656;9.666;2022-08-16T13:09:19;19.30;99.90
21580;DHT22;10951;59.656;9.666;2022-08-16T13:12:16;19.30;99.90
21580;DHT22;10951;59.656;9.666;2022-08-16T13:14:51;19.40;99.90
21580;DHT22;10951;59.656;9.666;2022-08-16T13:17:22;19.50;99.90
21580;DHT22;10951;59.656;9.666;2022-08-16T13:19:53;19.60;99.90
21580;DHT22;10951;59.656;9.666;2022-08-16T13:22:50;19.70;99.90
21580;DHT22;10951;59.656;9.666;2022-08-16T13:25:21;19.70;99.90
21580;DHT22;10951;59.656;9.666;2022-08-16T13:27:51;19.70;99.90
21580;DHT22;10951;59.656;9.666;2022-08-16T13:30:32;19.70;99.90
21580;DHT22;10951;59.656;9.666;2022-08-16T13:33:04;19.70;99.90
21580;DHT22;10951;59.656;9.666;2022-08-16T13:35:40;19.70;99.90
21580;DHT22;10951;59.656;9.666;2022-08-16T13:38:12;19.70;99.90
21580;DHT22;10951;59.656;9.666;2022-08-16T13:40:55;19.70;99.90
21580;DHT22;10951;59.656;9.666;2022-08-16T13:43:26;19.70;99.90
21580;DHT22;10951;59.656;9.666;2022-08-16T13:45:55;19.80;99.90
21580;DHT22;10951;59.656;9.666;2022-08-16T13:48:23;19.80;99.90
21580;DHT22;10951;59.656;9.666;2022-08-16T13:50:53;19.80;99.90
21580;DHT22;10951;59.656;9.666;2022-08-16T13:53:23;19.80;99.90
21580;DHT22;10951;59.656;9.666;2022-08-16T13:55:52;19.70;99.90
21580;DHT22;10951;59.656;9.666;2022-08-16T13:58:28;19.80;99.90
21580;DHT22;10951;59.656;9.666;2022-08-16T14:01:02;19.90;99.90
21580;DHT22;10951;59.656;9.666;2022-08-16T14:03:29;20.10;99.90
21580;DHT22;10951;59.656;9.666;2022-08-16T14:05:55;20.10;99.90
21580;DHT22;10951;59.656;9.666;2022-08-16T14:08:22;20.20;99.90
21580;DHT22;10951;59.656;9.666;2022-08-16T14:10:53;20.30;99.90
21580;DHT22;10951;59.656;9.666;2022-08-16T14:13:20;20.50;99.90
21580;DHT22;10951;59.656;9.666;2022-08-16T14:15:47;20.60;99.90
21580;DHT22;10951;59.656;9.666;2022-08-16T14:18:15;20.80;99.90
21580;DHT22;10951;59.656;9.666;2022-08-16T14:20:46;20.80;99.90
21580;DHT22;10951;59.656;9.666;2022-08-16T14:23:16;20.90;99.90
21580;DHT22;10951;59.656;9.666;2022-08-16T14:25:50;20.80;99.90
21580;DHT22;10951;59.656;9.666;2022-08-16T14:28:20;20.70;99.90
21580;DHT22;10951;59.656;9.666;2022-08-16T14:30:49;20.70;99.90
21580;DHT22;10951;59.656;9.666;2022-08-16T14:33:17;20.60;99.90
21580;DHT22;10951;59.656;9.666;2022-08-16T14:35:44;20.50;99.90
21580;DHT22;10951;59.656;9.666;2022-08-16T14:38:17;20.50;99.90
21580;DHT22;10951;59.656;9.666;2022-08-16T14:40:50;20.50;99.90
21580;DHT22;10951;59.656;9.666;2022-08-16T14:43:23;20.40;99.90
21580;DHT22;10951;59.656;9.666;2022-08-16T14:45:50;20.30;99.90
21580;DHT22;10951;59.656;9.666;2022-08-16T14:48:20;20.30;99.90
21580;DHT22;10951;59.656;9.666;2022-08-16T14:50:52;20.30;99.90
21580;DHT22;10951;59.656;9.666;2022-08-16T14:53:22;20.20;99.90
21580;DHT22;10951;59.656;9.666;2022-08-16T14:55:49;20.20;99.90
21580;DHT22;10951;59.656;9.666;2022-08-16T14:58:16;20.20;99.90
21580;DHT22;10951;59.656;9.666;2022-08-16T15:01:00;20.10;99.90
21580;DHT22;10951;59.656;9.666;2022-08-16T15:03:28;20.10;99.90
21580;DHT22;10951;59.656;9.666;2022-08-16T15:05:59;20.10;99.90
21580;DHT22;10951;59.656;9.666;2022-08-16T15:08:27;20.20;99.90
21580;DHT22;10951;59.656;9.666;2022-08-16T15:11:04;20.20;99.90
21580;DHT22;10951;59.656;9.666;2022-08-16T15:13:33;20.20;99.90
21580;DHT22;10951;59.656;9.666;2022-08-16T15:16:00;20.20;99.90
21580;DHT22;10951;59.656;9.666;2022-08-16T15:18:29;20.30;99.90
21580;DHT22;10951;59.656;9.666;2022-08-16T15:20:59;20.20;99.90
21580;DHT22;10951;59.656;9.666;2022-08-16T15:23:27;20.20;99.90
21580;DHT22;10951;59.656;9.666;2022-08-16T15:26:00;20.20;99.90
21580;DHT22;10951;59.656;9.666;2022-08-16T15:28:31;20.30;99.90
21580;DHT22;10951;59.656;9.666;2022-08-16T15:30:59;20.30;99.90
21580;DHT22;10951;59.656;9.666;2022-08-16T15:33:31;20.30;99.90
21580;DHT22;10951;59.656;9.666;2022-08-16T15:35:59;20.40;99.90
21580;DHT22;10951;59.656;9.666;2022-08-16T15:38:27;20.40;99.90
21580;DHT22;10951;59.656;9.666;2022-08-16T15:44:16;20.60;99.90
21580;DHT22;10951;59.656;9.666;2022-08-16T15:46:48;20.70;99.90
21580;DHT22;10951;59.656;9.666;2022-08-16T15:49:28;20.80;99.90
21580;DHT22;10951;59.656;9.666;2022-08-16T15:52:10;20.80;99.90
21580;DHT22;10951;59.656;9.666;2022-08-16T15:54:39;20.80;99.90
21580;DHT22;10951;59.656;9.666;2022-08-16T15:57:21;20.70;99.90
21580;DHT22;10951;59.656;9.666;2022-08-16T15:59:48;20.70;99.90
21580;DHT22;10951;59.656;9.666;2022-08-16T16:02:23;20.70;99.90
21580;DHT22;10951;59.656;9.666;2022-08-16T16:04:55;20.70;99.90
21580;DHT22;10951;59.656;9.666;2022-08-16T16:07:26;20.60;99.90
21580;DHT22;10951;59.656;9.666;2022-08-16T16:09:56;20.50;99.90
21580;DHT22;10951;59.656;9.666;2022-08-16T16:12:25;20.50;99.90
21580;DHT22;10951;59.656;9.666;2022-08-16T16:15:15;20.40;99.90
21580;DHT22;10951;59.656;9.666;2022-08-16T16:17:43;20.40;99.90
21580;DHT22;10951;59.656;9.666;2022-08-16T16:20:19;20.40;99.90